Equinunk, Pennsylvania
Current Conditions -  °F | °C
As of 1:15 PM on Friday 28 Nov 2014 (Local Time) from KMSV Reporting Station
Overcast Overcast  
Wind Chill: 13°   Ceiling: 3600
Heat Index: 25°   Visibility: 10mi
Dew Point: 10°   Wind: 14mph
Humidity: 54%   Direction: 300°WNW
Pressure: 30.12"   Gusts: 22mph
Location:  41.86°N, 75.22°W
Report Text: KMSV 281815Z AUTO 30012G19KT 10SM OVC036 M04/M12 A3012 RMK AO1
Loading
Personal Weather Stations






























Interactive Weather Map New forecast layout! Learn more

10-Day Weather Forecast

Advertisements
Track Severe Weather on mobile